createdAt,value
2017-10-11T00:00:59.360Z,5.70
2017-10-11T00:03:26.770Z,6.37
2017-10-11T00:05:54.282Z,5.20
2017-10-11T00:08:21.667Z,6.03
2017-10-11T00:10:49.188Z,6.03
2017-10-11T00:13:16.593Z,6.30
2017-10-11T00:15:44.006Z,6.13
2017-10-11T00:18:11.430Z,5.40
2017-10-11T00:20:38.844Z,6.00
2017-10-11T00:23:06.259Z,6.37
2017-10-11T00:25:33.725Z,6.43
2017-10-11T00:28:01.186Z,6.17
2017-10-11T00:30:28.597Z,6.03
2017-10-11T00:32:56.802Z,6.73
2017-10-11T00:35:24.218Z,6.97
2017-10-11T00:37:51.638Z,5.93
2017-10-11T00:40:19.054Z,6.70
2017-10-11T00:42:47.246Z,5.73
2017-10-11T00:45:14.642Z,6.07
2017-10-11T00:47:42.168Z,5.80
2017-10-11T00:50:09.583Z,5.30
2017-10-11T00:52:37.771Z,6.13
2017-10-11T00:55:05.950Z,4.90
2017-10-11T00:57:33.374Z,5.40
2017-10-11T01:00:00.791Z,5.13
2017-10-11T01:02:28.245Z,5.93
2017-10-11T01:04:55.662Z,5.80
2017-10-11T01:07:23.831Z,5.67
2017-10-11T01:09:52.014Z,5.23
2017-10-11T01:12:20.200Z,6.30
2017-10-11T01:14:47.672Z,5.53
2017-10-11T01:17:15.073Z,6.37
2017-10-11T01:19:42.513Z,6.70
2017-10-11T01:22:09.919Z,6.40
2017-10-11T01:24:38.221Z,7.03
2017-10-11T01:27:05.655Z,9.43
2017-10-11T01:29:33.834Z,7.23
2017-10-11T01:32:01.238Z,6.40
2017-10-11T01:34:28.675Z,7.30
2017-10-11T01:36:56.082Z,7.00
2017-10-11T01:39:24.257Z,7.57
2017-10-11T01:41:52.451Z,7.77
2017-10-11T01:44:19.861Z,6.60
2017-10-11T01:46:47.286Z,6.03
2017-10-11T01:49:14.694Z,7.50
2017-10-11T01:51:42.886Z,7.40
2017-10-11T01:54:11.087Z,6.87
2017-10-11T01:56:38.502Z,7.00
2017-10-11T01:59:05.914Z,6.50
2017-10-11T02:01:33.430Z,5.80
2017-10-11T02:04:00.846Z,6.90
2017-10-11T02:06:28.364Z,6.30
2017-10-11T02:08:55.774Z,6.27
2017-10-11T02:11:23.197Z,5.90
2017-10-11T02:13:50.610Z,6.30
2017-10-11T02:16:18.790Z,6.37
2017-10-11T02:18:46.225Z,6.47
2017-10-11T02:21:14.393Z,5.77
2017-10-11T02:23:41.811Z,6.17
2017-10-11T02:26:09.226Z,4.90
2017-10-11T02:28:37.537Z,5.40
2017-10-11T02:31:04.933Z,5.23
2017-10-11T02:33:32.360Z,4.90
2017-10-11T02:35:59.783Z,5.00
2017-10-11T02:38:27.194Z,5.10
2017-10-11T02:40:54.607Z,5.07
2017-10-11T02:43:22.019Z,3.90
2017-10-11T02:45:49.434Z,4.80
2017-10-11T02:48:17.378Z,4.33
2017-10-11T02:50:44.845Z,4.50
2017-10-11T02:53:12.277Z,4.30
2017-10-11T02:55:39.681Z,4.17
2017-10-11T02:58:07.107Z,4.13
2017-10-11T03:00:34.748Z,4.60
2017-10-11T03:03:02.949Z,5.60
2017-10-11T03:05:30.371Z,4.87
2017-10-11T03:07:58.545Z,3.90
2017-10-11T03:10:26.732Z,4.83
2017-10-11T03:12:54.145Z,4.70
2017-10-11T03:15:22.394Z,4.07
2017-10-11T03:17:49.817Z,4.73
2017-10-11T03:20:18.003Z,4.30
2017-10-11T03:22:45.419Z,3.90
2017-10-11T03:25:12.838Z,5.10
2017-10-11T03:27:40.300Z,4.30
2017-10-11T03:30:07.727Z,4.60
2017-10-11T03:32:35.202Z,4.60
2017-10-11T03:35:02.609Z,4.80
2017-10-11T03:37:30.027Z,4.70
2017-10-11T03:39:57.437Z,4.00
2017-10-11T03:42:25.622Z,5.10
2017-10-11T03:44:53.030Z,4.70
2017-10-11T03:47:20.455Z,3.90
2017-10-11T03:49:47.898Z,3.60
2017-10-11T03:52:15.315Z,4.30
2017-10-11T03:54:42.727Z,4.03
2017-10-11T03:57:10.146Z,3.33
2017-10-11T03:59:38.322Z,4.10
2017-10-11T04:02:06.617Z,3.40
2017-10-11T04:04:34.027Z,3.80
2017-10-11T04:07:01.450Z,3.93
2017-10-11T04:09:28.864Z,3.33
2017-10-11T04:11:57.054Z,4.33
2017-10-11T04:14:24.466Z,4.60
2017-10-11T04:16:52.689Z,4.67
2017-10-11T04:19:20.110Z,4.00
2017-10-11T04:21:47.522Z,3.97
2017-10-11T04:24:14.946Z,3.80
2017-10-11T04:26:42.382Z,4.10
2017-10-11T04:29:10.558Z,4.20
2017-10-11T04:31:38.738Z,4.33
2017-10-11T04:34:06.922Z,4.20
2017-10-11T04:36:34.334Z,5.43
2017-10-11T04:39:01.767Z,4.93
2017-10-11T04:41:29.843Z,4.47
2017-10-11T04:43:57.257Z,4.13
2017-10-11T04:46:25.435Z,4.20
2017-10-11T04:48:52.850Z,4.13
2017-10-11T04:51:21.039Z,4.17
2017-10-11T04:53:48.454Z,3.50
2017-10-11T04:56:15.875Z,4.10
2017-10-11T04:58:44.050Z,4.30
2017-10-11T05:01:12.234Z,4.47
2017-10-11T05:03:39.654Z,4.40
2017-10-11T05:06:07.074Z,4.10
2017-10-11T05:08:34.507Z,4.47
2017-10-11T05:11:01.924Z,4.73
2017-10-11T05:13:29.337Z,5.10
2017-10-11T05:15:56.763Z,4.87
2017-10-11T05:18:24.181Z,4.80
2017-10-11T05:20:51.603Z,5.03
2017-10-11T05:23:19.016Z,5.03
2017-10-11T05:25:47.217Z,4.90
2017-10-11T05:28:14.613Z,5.80
2017-10-11T05:30:42.039Z,4.70
2017-10-11T05:33:09.450Z,5.07
2017-10-11T05:35:36.868Z,7.83
2017-10-11T05:38:04.274Z,5.80
2017-10-11T05:40:32.463Z,5.97
2017-10-11T05:42:59.878Z,5.60
2017-10-11T05:45:27.298Z,5.37
2017-10-11T05:47:54.703Z,5.40
2017-10-11T05:50:22.138Z,4.77
2017-10-11T05:52:49.575Z,4.40
2017-10-11T05:55:16.990Z,4.47
2017-10-11T05:57:45.167Z,4.97
2017-10-11T06:00:13.342Z,4.23
2017-10-11T06:02:41.526Z,4.90
2017-10-11T06:05:08.939Z,4.83
2017-10-11T06:07:36.379Z,4.80
2017-10-11T06:10:03.769Z,4.07
2017-10-11T06:12:31.973Z,4.27
2017-10-11T06:14:59.369Z,4.37
2017-10-11T06:17:26.803Z,4.77
2017-10-11T06:19:54.200Z,5.13
2017-10-11T06:22:21.637Z,4.80
2017-10-11T06:24:49.045Z,4.83
2017-10-11T06:27:17.224Z,4.77
2017-10-11T06:29:44.645Z,5.50
2017-10-11T06:32:12.071Z,5.23
2017-10-11T06:34:39.489Z,5.23
2017-10-11T06:37:06.899Z,6.17
2017-10-11T06:39:34.323Z,5.63
2017-10-11T06:42:01.731Z,5.50
2017-10-11T06:44:29.923Z,5.03
2017-10-11T06:46:57.334Z,5.20
2017-10-11T06:49:24.757Z,5.30
2017-10-11T06:51:52.161Z,5.47
2017-10-11T06:54:19.586Z,5.07
2017-10-11T06:56:47.002Z,6.00
2017-10-11T06:59:14.418Z,5.60
2017-10-11T07:01:41.843Z,6.00
2017-10-11T07:04:09.271Z,5.40
2017-10-11T07:06:36.691Z,5.90
2017-10-11T07:09:04.093Z,5.30
2017-10-11T07:11:31.514Z,5.50
2017-10-11T07:13:58.926Z,5.40
2017-10-11T07:16:26.329Z,4.67
2017-10-11T07:18:54.518Z,5.23
2017-10-11T07:21:22.698Z,4.47
2017-10-11T07:23:50.122Z,4.40
2017-10-11T07:26:17.522Z,4.63
2017-10-11T07:28:44.947Z,4.40
2017-10-11T07:31:13.130Z,4.70
2017-10-11T07:33:41.320Z,4.63
2017-10-11T07:36:08.725Z,5.20
2017-10-11T07:38:36.138Z,4.70
2017-10-11T07:41:03.567Z,4.83
2017-10-11T07:43:31.758Z,5.77
2017-10-11T07:45:59.942Z,5.37
2017-10-11T07:48:27.362Z,6.00
2017-10-11T07:50:54.787Z,6.57
2017-10-11T07:53:22.966Z,5.17
2017-10-11T07:55:50.389Z,5.20
2017-10-11T07:58:17.788Z,4.90
2017-10-11T08:00:45.197Z,5.57
2017-10-11T08:03:12.613Z,5.63
2017-10-11T08:05:40.044Z,5.30
2017-10-11T08:08:07.459Z,5.90
2017-10-11T08:10:34.878Z,5.00
2017-10-11T08:13:02.295Z,5.53
2017-10-11T08:15:29.697Z,5.27
2017-10-11T08:17:57.874Z,7.43
2017-10-11T08:20:26.062Z,5.70
2017-10-11T08:22:54.246Z,5.67
2017-10-11T08:25:21.661Z,5.70
2017-10-11T08:27:49.095Z,21.40
2017-10-11T08:30:16.514Z,5.13
2017-10-11T08:32:44.690Z,4.23
2017-10-11T08:35:14.913Z,4.20
2017-10-11T08:37:42.330Z,5.00
2017-10-11T08:40:09.745Z,4.73
2017-10-11T08:42:37.167Z,4.73
2017-10-11T08:45:05.350Z,5.27
2017-10-11T08:47:32.766Z,5.07
2017-10-11T08:50:00.186Z,5.40
2017-10-11T08:52:27.594Z,6.37
2017-10-11T08:54:55.773Z,5.70
2017-10-11T08:57:23.969Z,6.10
2017-10-11T08:59:51.375Z,5.50
2017-10-11T09:02:18.795Z,4.83
2017-10-11T09:04:46.209Z,6.50
2017-10-11T09:07:13.627Z,6.00
2017-10-11T09:09:41.038Z,5.80
2017-10-11T09:12:09.232Z,4.87
2017-10-11T09:14:36.642Z,4.77
2017-10-11T09:17:04.070Z,5.70
2017-10-11T09:19:31.481Z,5.20
2017-10-11T09:21:59.658Z,5.13
2017-10-11T09:24:27.070Z,4.90
2017-10-11T09:26:54.499Z,5.10
2017-10-11T09:29:21.910Z,6.00
2017-10-11T09:31:50.093Z,6.10
2017-10-11T09:34:18.271Z,5.63
2017-10-11T09:36:46.456Z,5.40
2017-10-11T09:39:14.631Z,5.43
2017-10-11T09:41:42.048Z,5.93
2017-10-11T09:44:09.463Z,5.20
2017-10-11T09:46:36.877Z,6.67
2017-10-11T09:49:05.065Z,5.80
2017-10-11T09:51:33.239Z,5.50
2017-10-11T09:54:00.649Z,6.20
2017-10-11T09:56:28.074Z,5.83
2017-10-11T09:58:55.490Z,6.70
2017-10-11T10:01:23.663Z,6.00
2017-10-11T10:03:51.847Z,6.33
2017-10-11T10:06:20.031Z,6.47
2017-10-11T10:08:47.442Z,6.60
2017-10-11T10:11:14.851Z,6.97
2017-10-11T10:13:42.270Z,6.60
2017-10-11T10:16:09.671Z,6.13
2017-10-11T10:18:37.098Z,5.20
2017-10-11T10:21:05.282Z,5.20
2017-10-11T10:23:32.708Z,5.63
2017-10-11T10:26:00.116Z,6.50
2017-10-11T10:28:27.543Z,5.80
2017-10-11T10:30:55.715Z,5.97
2017-10-11T10:33:23.902Z,6.30
2017-10-11T10:35:51.319Z,5.20
2017-10-11T10:38:18.737Z,4.93
2017-10-11T10:40:46.150Z,5.37
2017-10-11T10:43:14.351Z,3.93
2017-10-11T10:45:41.752Z,3.73
2017-10-11T10:48:09.170Z,3.10
2017-10-11T10:50:36.587Z,3.10
2017-10-11T10:53:04.761Z,3.10
2017-10-11T10:55:32.945Z,2.60
2017-10-11T10:58:01.127Z,2.70
2017-10-11T11:00:29.310Z,3.30
2017-10-11T11:02:56.714Z,2.50
2017-10-11T11:05:24.138Z,2.47
2017-10-11T11:07:51.550Z,2.80
2017-10-11T11:10:19.746Z,2.60
2017-10-11T11:12:47.159Z,2.43
2017-10-11T11:15:14.581Z,2.77
2017-10-11T11:17:41.998Z,3.00
2017-10-11T11:20:10.192Z,2.17
2017-10-11T11:22:38.358Z,2.20
2017-10-11T11:25:06.554Z,2.20
2017-10-11T11:27:33.980Z,2.30
2017-10-11T11:30:02.170Z,2.70
2017-10-11T11:32:29.581Z,2.27
2017-10-11T11:34:57.006Z,2.10
2017-10-11T11:37:24.418Z,1.70
2017-10-11T11:39:52.599Z,1.80
2017-10-11T11:42:20.779Z,1.70
2017-10-11T11:44:48.978Z,2.07
2017-10-11T11:47:16.384Z,1.77
2017-10-11T11:49:43.797Z,1.73
2017-10-11T11:52:11.210Z,1.37
2017-10-11T11:54:39.398Z,1.53
2017-10-11T11:57:06.815Z,1.80
2017-10-11T11:59:34.232Z,1.40
2017-10-11T12:02:01.642Z,1.60
2017-10-11T12:04:29.071Z,1.30
2017-10-11T12:06:56.482Z,1.30
2017-10-11T12:09:23.898Z,1.80
2017-10-11T12:11:51.327Z,1.90
2017-10-11T12:14:18.749Z,1.57
2017-10-11T12:16:46.166Z,1.57
2017-10-11T12:19:13.580Z,1.80
2017-10-11T12:21:41.000Z,1.70
2017-10-11T12:24:09.178Z,1.80
2017-10-11T12:26:37.374Z,3.30
2017-10-11T12:29:04.781Z,6.00
2017-10-11T12:31:32.190Z,5.87
2017-10-11T12:33:59.594Z,2.03
2017-10-11T12:36:27.021Z,25.00
2017-10-11T12:38:54.434Z,9.03
2017-10-11T12:41:22.623Z,2.53
2017-10-11T12:43:50.043Z,1.97
2017-10-11T12:46:17.457Z,2.07
2017-10-11T12:48:44.863Z,3.10
2017-10-11T12:51:13.047Z,3.70
2017-10-11T12:53:41.232Z,1.93
2017-10-11T12:56:09.418Z,2.07
2017-10-11T12:58:36.833Z,2.40
2017-10-11T13:01:04.254Z,1.87
2017-10-11T13:03:31.666Z,1.80
2017-10-11T13:05:59.845Z,1.80
2017-10-11T13:08:27.283Z,1.80
2017-10-11T13:10:54.698Z,2.00
2017-10-11T13:13:22.110Z,2.40
2017-10-11T13:15:50.298Z,1.93
2017-10-11T13:18:17.701Z,1.90
2017-10-11T13:20:45.124Z,2.00
2017-10-11T13:23:12.535Z,1.93
2017-10-11T13:25:40.718Z,1.53
2017-10-11T13:28:08.903Z,1.70
2017-10-11T13:30:37.077Z,3.13
2017-10-11T13:33:05.339Z,2.30
2017-10-11T13:35:33.522Z,2.30
2017-10-11T13:38:01.694Z,2.10
2017-10-11T13:40:29.873Z,2.27
2017-10-11T13:42:57.291Z,2.47
2017-10-11T13:45:24.708Z,2.17
2017-10-11T13:47:52.126Z,2.47
2017-10-11T13:50:19.542Z,2.67
2017-10-11T13:52:46.950Z,2.07
2017-10-11T13:55:15.145Z,2.00
2017-10-11T13:57:42.550Z,2.20
2017-10-11T14:00:09.971Z,1.80
2017-10-11T14:02:37.390Z,2.30
2017-10-11T14:05:05.570Z,2.20
2017-10-11T14:07:33.749Z,1.83
2017-10-11T14:10:01.162Z,2.20
2017-10-11T14:12:28.586Z,2.17
2017-10-11T14:14:56.002Z,2.00
2017-10-11T14:17:24.182Z,1.83
2017-10-11T14:19:52.362Z,1.60
2017-10-11T14:22:19.793Z,1.80
2017-10-11T14:24:47.201Z,2.47
2017-10-11T14:27:14.633Z,7.57
2017-10-11T14:29:42.043Z,3.33
2017-10-11T14:32:10.135Z,2.67
2017-10-11T14:34:37.546Z,7.57
2017-10-11T14:37:04.973Z,1.77
2017-10-11T14:39:33.142Z,2.23
2017-10-11T14:42:00.562Z,3.33
2017-10-11T14:44:28.741Z,4.30
2017-10-11T14:46:56.156Z,2.20
2017-10-11T14:49:23.563Z,1.80
2017-10-11T14:51:50.982Z,1.30
2017-10-11T14:54:18.389Z,1.80
2017-10-11T14:56:46.565Z,1.73
2017-10-11T14:59:14.753Z,1.93
2017-10-11T15:01:42.158Z,1.50
2017-10-11T15:04:09.579Z,2.00
2017-10-11T15:06:36.985Z,2.20
2017-10-11T15:09:04.422Z,1.87
2017-10-11T15:11:31.839Z,1.60
2017-10-11T15:13:59.258Z,1.47
2017-10-11T15:16:27.444Z,2.27
2017-10-11T15:18:55.619Z,1.73
2017-10-11T15:21:23.790Z,1.50
2017-10-11T15:23:51.970Z,1.33
2017-10-11T15:26:20.149Z,1.60
2017-10-11T15:28:47.561Z,1.47
2017-10-11T15:31:14.985Z,2.10
2017-10-11T15:33:42.394Z,1.90
2017-10-11T15:36:10.719Z,1.83
2017-10-11T15:38:38.147Z,1.60
2017-10-11T15:41:06.305Z,1.70
2017-10-11T15:43:34.486Z,1.90
2017-10-11T15:46:02.658Z,1.90
2017-10-11T15:48:30.848Z,1.50
2017-10-11T15:50:58.257Z,2.27
2017-10-11T15:53:25.678Z,1.80
2017-10-11T15:55:53.090Z,2.13
2017-10-11T15:58:20.521Z,1.90
2017-10-11T16:00:47.926Z,1.77
2017-10-11T16:03:15.345Z,1.60
2017-10-11T16:05:42.749Z,1.50
2017-10-11T16:08:10.181Z,1.57
2017-10-11T16:10:37.587Z,1.87
2017-10-11T16:13:05.018Z,2.27
2017-10-11T16:15:32.428Z,1.83
2017-10-11T16:17:59.846Z,1.87
2017-10-11T16:20:27.266Z,1.67
2017-10-11T16:22:55.442Z,1.60
2017-10-11T16:25:23.637Z,2.10
2017-10-11T16:27:51.038Z,2.03
2017-10-11T16:30:18.454Z,1.90
2017-10-11T16:32:45.870Z,1.90
2017-10-11T16:35:14.053Z,2.27
2017-10-11T16:37:42.239Z,2.00
2017-10-11T16:40:09.667Z,2.10
2017-10-11T16:42:37.077Z,1.97
2017-10-11T16:45:04.498Z,2.60
2017-10-11T16:47:32.693Z,2.10
2017-10-11T16:50:00.107Z,2.43
2017-10-11T16:52:27.522Z,2.10
2017-10-11T16:54:54.939Z,2.23
2017-10-11T16:57:23.113Z,2.30
2017-10-11T16:59:51.293Z,2.50
2017-10-11T17:02:18.706Z,2.50
2017-10-11T17:04:46.121Z,2.60
2017-10-11T17:07:13.535Z,2.27
2017-10-11T17:09:40.947Z,1.83
2017-10-11T17:12:08.359Z,2.53
2017-10-11T17:14:36.545Z,2.40
2017-10-11T17:17:04.721Z,2.10
2017-10-11T17:19:32.899Z,2.83
2017-10-11T17:22:00.320Z,2.57
2017-10-11T17:24:27.737Z,2.50
2017-10-11T17:26:55.157Z,2.33
2017-10-11T17:29:23.333Z,2.40
2017-10-11T17:31:51.530Z,2.10
2017-10-11T17:34:18.938Z,2.70
2017-10-11T17:36:46.362Z,2.13
2017-10-11T17:39:13.774Z,2.63
2017-10-11T17:41:41.958Z,2.87
2017-10-11T17:44:09.371Z,2.13
2017-10-11T17:46:36.787Z,2.10
2017-10-11T17:49:04.203Z,2.10
2017-10-11T17:51:31.614Z,2.33
2017-10-11T17:53:59.745Z,2.00
2017-10-11T17:56:27.916Z,2.57
2017-10-11T17:58:56.105Z,2.10
2017-10-11T18:01:23.516Z,2.10
2017-10-11T18:03:50.929Z,2.10
2017-10-11T18:06:18.342Z,2.00
2017-10-11T18:08:45.750Z,2.20
2017-10-11T18:11:13.179Z,2.90
2017-10-11T18:13:40.586Z,2.73
2017-10-11T18:16:08.011Z,2.50
2017-10-11T18:18:35.427Z,3.43
2017-10-11T18:21:03.617Z,2.40
2017-10-11T18:23:31.785Z,2.50
2017-10-11T18:25:59.965Z,2.27
2017-10-11T18:28:27.382Z,3.17
2017-10-11T18:30:54.818Z,2.10
2017-10-11T18:33:22.216Z,2.80
2017-10-11T18:35:49.641Z,2.37
2017-10-11T18:38:17.048Z,2.93
2017-10-11T18:40:45.225Z,2.63
2017-10-11T18:43:12.643Z,2.80
2017-10-11T18:45:40.062Z,2.87
2017-10-11T18:48:07.483Z,2.63
2017-10-11T18:50:35.658Z,2.40
2017-10-11T18:53:04.175Z,2.50
2017-10-11T18:55:31.682Z,2.63
2017-10-11T18:57:59.864Z,2.60
2017-10-11T19:00:28.056Z,2.70
2017-10-11T19:02:55.466Z,2.43
2017-10-11T19:05:22.907Z,2.70
2017-10-11T19:07:50.412Z,2.00
2017-10-11T19:10:18.593Z,2.27
2017-10-11T19:12:46.010Z,2.33
2017-10-11T19:15:13.438Z,2.00
2017-10-11T19:17:40.838Z,2.23
2017-10-11T19:20:08.254Z,2.30
2017-10-11T19:22:35.661Z,2.70
2017-10-11T19:25:03.854Z,2.50
2017-10-11T19:27:31.271Z,3.90
2017-10-11T19:29:58.695Z,3.90
2017-10-11T19:32:26.113Z,3.77
2017-10-11T19:34:54.301Z,4.37
2017-10-11T19:37:21.717Z,4.63
2017-10-11T19:39:49.128Z,3.53
2017-10-11T19:42:16.542Z,2.60
2017-10-11T19:44:44.722Z,3.33
2017-10-11T19:47:12.906Z,2.33
2017-10-11T19:49:41.091Z,2.40
2017-10-11T19:52:08.507Z,3.30
2017-10-11T19:54:35.927Z,2.37
2017-10-11T19:57:03.338Z,2.50
2017-10-11T19:59:31.530Z,3.30
2017-10-11T20:01:58.947Z,3.10
2017-10-11T20:04:26.360Z,3.40
2017-10-11T20:06:53.761Z,3.70
2017-10-11T20:09:21.192Z,2.90
2017-10-11T20:11:48.602Z,2.87
2017-10-11T20:14:16.785Z,2.90
2017-10-11T20:16:44.213Z,3.90
2017-10-11T20:19:11.626Z,3.60
2017-10-11T20:21:39.041Z,3.03
2017-10-11T20:24:07.250Z,2.80
2017-10-11T20:26:34.654Z,3.57
2017-10-11T20:29:02.840Z,3.70
2017-10-11T20:31:31.021Z,3.63
2017-10-11T20:33:59.275Z,3.10
2017-10-11T20:36:27.631Z,3.20
2017-10-11T20:38:55.070Z,3.47
2017-10-11T20:41:22.486Z,3.10
2017-10-11T20:43:50.683Z,3.37
2017-10-11T20:46:18.100Z,4.13
2017-10-11T20:48:45.501Z,3.63
2017-10-11T20:51:12.918Z,3.73
2017-10-11T20:53:41.090Z,3.30
2017-10-11T20:56:09.272Z,3.10
2017-10-11T20:58:37.451Z,3.90
2017-10-11T21:01:05.635Z,3.50
2017-10-11T21:03:33.056Z,3.90
2017-10-11T21:06:00.478Z,3.00
2017-10-11T21:08:27.884Z,3.10
2017-10-11T21:10:56.065Z,4.30
2017-10-11T21:13:24.250Z,2.77
2017-10-11T21:15:51.667Z,2.80
2017-10-11T21:18:19.086Z,3.10
2017-10-11T21:20:46.497Z,2.80
2017-10-11T21:23:14.689Z,3.03
2017-10-11T21:25:42.090Z,2.43
2017-10-11T21:28:09.516Z,3.03
2017-10-11T21:30:37.333Z,2.93
2017-10-11T21:33:04.754Z,2.57
2017-10-11T21:35:32.181Z,2.37
2017-10-11T21:37:59.603Z,2.23
2017-10-11T21:40:27.020Z,2.00
2017-10-11T21:42:54.438Z,2.10
2017-10-11T21:45:22.627Z,2.33
2017-10-11T21:47:50.049Z,2.03
2017-10-11T21:50:17.460Z,2.37
2017-10-11T21:52:44.883Z,2.40
2017-10-11T21:55:13.066Z,2.70
2017-10-11T21:57:40.478Z,2.40
2017-10-11T22:00:07.902Z,2.10
2017-10-11T22:02:35.310Z,2.03
2017-10-11T22:05:03.509Z,1.90
2017-10-11T22:07:30.922Z,2.00
2017-10-11T22:09:58.345Z,1.90
2017-10-11T22:12:25.928Z,1.50
2017-10-11T22:14:53.343Z,1.90
2017-10-11T22:17:20.764Z,2.10
2017-10-11T22:19:48.171Z,2.13
2017-10-11T22:22:15.587Z,2.23
2017-10-11T22:24:43.762Z,2.27
2017-10-11T22:27:11.950Z,2.03
2017-10-11T22:29:39.358Z,2.03
2017-10-11T22:32:06.780Z,2.17
2017-10-11T22:34:34.194Z,2.37
2017-10-11T22:39:29.307Z,2.50
2017-10-11T22:41:56.742Z,2.67
2017-10-11T22:44:24.142Z,2.00
2017-10-11T22:46:52.444Z,1.77
2017-10-11T22:49:19.859Z,2.53
2017-10-11T22:51:48.047Z,2.40
2017-10-11T22:54:16.225Z,2.23
2017-10-11T22:56:44.403Z,2.10
2017-10-11T22:59:11.831Z,2.10
2017-10-11T23:01:39.242Z,2.60
2017-10-11T23:04:06.700Z,1.87
2017-10-11T23:06:34.118Z,2.53
2017-10-11T23:09:02.300Z,2.20
2017-10-11T23:11:29.707Z,2.60
2017-10-11T23:13:57.133Z,2.73
2017-10-11T23:16:24.539Z,2.97
2017-10-11T23:18:51.954Z,2.67
2017-10-11T23:21:19.362Z,2.87
2017-10-11T23:23:47.546Z,2.50
2017-10-11T23:26:15.724Z,2.83
2017-10-11T23:28:43.925Z,3.17
2017-10-11T23:31:11.321Z,3.10
2017-10-11T23:33:38.738Z,2.90
2017-10-11T23:36:06.154Z,2.87
2017-10-11T23:38:34.348Z,3.20
2017-10-11T23:41:01.757Z,2.53
2017-10-11T23:43:29.178Z,2.77
2017-10-11T23:45:56.585Z,2.90
2017-10-11T23:48:24.002Z,3.37
2017-10-11T23:50:51.425Z,2.97
2017-10-11T23:53:18.842Z,3.33
2017-10-11T23:55:46.261Z,2.90
2017-10-11T23:58:13.678Z,2.80
